Point Lay LRRS Airport

About
Name: Point Lay LRRS Airport
Identifier:  PIZ/PPIZ
Owner:  U.S. Government 11 TCW /LGO Elmendorf
Public/Private:  Public / Military
Local Time:  18. Aug 05:07 AKDT
Description: Point Lay LRRS Airport is a public and military use airport owned by the United States Government and located in Point Lay, in the North Slope Borough of the U.S. state of Alaska. It is also known as Point Lay Airport. The acronym LRRS stands for Long Range Radar Site or Long Range Radar Station.
Source: Wikipedia
Location
Runways
Identifier Length (m/ft) Surface
5/23 3,519/3,519 Gravel
Flights per Day
3 flights
Distance: 278km (173mi)
Punctuality
61% (1 flights per day delayed)
Delay Average: 32 minutes
Current Weather
 14 C (Humidity: 71%)
  11kt (20km/h / 12mph) from 40°
  Overcast at 9,000 feet (2,743 meter)
  16km (10 mi.)
 METAR PPIZ 152342Z 04011KT 10SM OVC090 14/09 A3020 RMK VIA PHONE

Current Flights

Departures
Number Departure To Airline
Arrivals
Number Arrival From Airline

Current Delays

Departures
N/A
Arrivals
N/A

Destinations

Top Destinations
Airport Flights
per week
Seats
per week
  Point Hope (PHO) 0 - 0 0

Airlines & Planes

Top Airlines
Airline Flights
per Day
Seats
per Day
Ravn Alaska 0 -
Top Plane Types
Model Flights Seats
Beech 1900D 0.0/day - 0